VTSP/HKT METAR and TAF weather

Enter ICAO airport designator
Station Type Date Time Source
VTSP METAR 2020/09/19 03:00 UTC NOAA

VTSP 190300Z 27033KT 3000 RA FEW018 SCT020 BKN100 25/23 Q1009 WS ALL RWY TEMPO TL0340 26020G35KT 1500 +RA


Station Type Date Time Source
VTSP Decoded METAR 2020/09/19 03:00 UTC NOAA

Phuket Airport, Thailand (VTSP) 08-07N 098-19E 10M
Sep 18, 2020 - 11:00 PM EDT / 2020.09.19 0300 UTC
Wind: from the W (270 degrees) at 38 MPH (33 KT):0
Visibility: 1 mile(s):0
Sky conditions: mostly cloudy
Weather: rain
Temperature: 77 F (25 C)
Dew Point: 73 F (23 C)
Relative Humidity: 88%
Pressure (altimeter): 29.80 in. Hg (1009 hPa)
ob: VTSP 190300Z 27033KT 3000 RA FEW018 SCT020 BKN100 25/23 Q1009 WS ALL RWY TEMPO TL0340 26020G35KT 1500 +RA
cycle: 3

Station Type Date Time Source
VTSP TAF 2020/09/18 18:36 UTC NOAA

TAF VTSP 181700Z 1818/1924 28014KT 9999 SCT020 BKN100
TEMPO 1904/1910 28020G35KT 5000 RA FEW018 SCT020 BKN100
TEMPO 1918/1924 28020G35KT 5000 RA FEW018 SCT020 BKN100

Example: see airport list